Time;durP1;ratioP1;P1;durP2;ratioP2;P2;SDS_P1;SDS_P2;PMS_P1;PMS_P2;Temp;Humidity;BMP_temperature;BMP_pressure;BME280_temperature;BME280_humidity;BME280_pressure;Samples;Min_cycle;Max_cycle;Signal;HPM_P1;HPM_P2
2022/01/01 00:00:31;;;;;;;23.60;16.25;;;;;;;;;;5058414;28;20227;-69
2022/01/01 00:03:05;;;;;;;22.70;16.90;;;;;;;;;;5076104;28;20297;-69
2022/01/01 00:05:32;;;;;;;24.40;16.67;;;;;;;;;;5076924;28;20207;-69
2022/01/01 00:08:01;;;;;;;28.40;18.20;;;;;;;;;;5076610;28;20216;-69
2022/01/01 00:10:30;;;;;;;30.25;18.60;;;;;;;;;;5076709;28;20215;-69
2022/01/01 00:13:14;;;;;;;31.35;19.10;;;;;;;;;;5076557;28;20223;-69
2022/01/01 00:15:41;;;;;;;33.60;21.42;;;;;;;;;;5076526;28;20207;-67
2022/01/01 00:18:08;;;;;;;28.98;18.60;;;;;;;;;;5076660;28;20265;-69
2022/01/01 00:20:35;;;;;;;28.60;19.80;;;;;;;;;;5076576;28;20241;-69
2022/01/01 00:23:02;;;;;;;26.92;18.73;;;;;;;;;;5076600;28;20302;-69
2022/01/01 00:25:29;;;;;;;27.40;19.80;;;;;;;;;;5076408;28;20256;-69
2022/01/01 00:27:57;;;;;;;35.78;21.63;;;;;;;;;;5076289;28;20207;-69
2022/01/01 00:30:24;;;;;;;37.47;23.00;;;;;;;;;;5076199;28;20216;-69
2022/01/01 00:32:51;;;;;;;34.33;23.20;;;;;;;;;;5075912;28;20318;-69
2022/01/01 00:35:18;;;;;;;32.22;22.55;;;;;;;;;;5075991;28;20222;-69
2022/01/01 00:37:45;;;;;;;36.00;22.50;;;;;;;;;;5075993;28;20222;-69
2022/01/01 00:40:13;;;;;;;42.78;25.70;;;;;;;;;;5075795;28;20235;-69
2022/01/01 00:42:40;;;;;;;51.70;27.27;;;;;;;;;;5076164;28;20211;-69
2022/01/01 00:45:08;;;;;;;35.72;23.92;;;;;;;;;;5075761;28;20208;-70
2022/01/01 00:47:35;;;;;;;36.38;24.50;;;;;;;;;;5075911;28;20207;-69
2022/01/01 00:50:03;;;;;;;36.28;23.52;;;;;;;;;;5075794;28;20211;-69
2022/01/01 00:52:30;;;;;;;41.85;25.17;;;;;;;;;;5075786;28;20233;-69
2022/01/01 00:54:58;;;;;;;39.33;25.70;;;;;;;;;;5075853;28;20208;-69
2022/01/01 00:57:25;;;;;;;38.00;25.10;;;;;;;;;;5075687;28;20207;-69
2022/01/01 00:59:53;;;;;;;42.35;25.35;;;;;;;;;;5075555;28;20211;-69
2022/01/01 01:02:20;;;;;;;38.75;23.88;;;;;;;;;;5075239;28;20247;-68
2022/01/01 01:04:47;;;;;;;42.92;25.58;;;;;;;;;;5075626;28;20211;-69
2022/01/01 01:07:15;;;;;;;40.47;25.20;;;;;;;;;;5075404;28;20265;-69
2022/01/01 01:09:42;;;;;;;38.08;23.80;;;;;;;;;;5075329;28;20211;-69
2022/01/01 01:12:10;;;;;;;38.78;26.55;;;;;;;;;;5075394;28;20212;-69
2022/01/01 01:14:41;;;;;;;39.25;25.40;;;;;;;;;;5075377;28;20321;-69
2022/01/01 01:17:10;;;;;;;40.22;25.45;;;;;;;;;;5075422;28;20231;-69
2022/01/01 01:19:37;;;;;;;36.30;25.65;;;;;;;;;;5075593;28;20212;-69
2022/01/01 01:22:05;;;;;;;37.80;24.35;;;;;;;;;;5075374;28;20306;-69
2022/01/01 01:24:33;;;;;;;37.90;25.40;;;;;;;;;;5075253;28;20214;-69
2022/01/01 01:27:03;;;;;;;37.72;25.13;;;;;;;;;;5074960;28;20569;-69
2022/01/01 01:29:32;;;;;;;39.55;26.02;;;;;;;;;;5075327;28;20238;-69
2022/01/01 01:31:59;;;;;;;44.80;29.48;;;;;;;;;;5075157;28;20246;-69
2022/01/01 01:34:27;;;;;;;40.85;25.33;;;;;;;;;;5074892;28;20235;-68
2022/01/01 01:36:54;;;;;;;39.00;25.92;;;;;;;;;;5074907;28;20261;-68
2022/01/01 01:39:21;;;;;;;40.83;24.38;;;;;;;;;;5075096;28;20215;-69
2022/01/01 01:41:51;;;;;;;29.20;19.45;;;;;;;;;;5075017;28;20216;-69
2022/01/01 01:44:29;;;;;;;29.98;20.52;;;;;;;;;;5074984;28;20226;-69
2022/01/01 01:46:59;;;;;;;24.60;17.67;;;;;;;;;;5073968;28;20203;-68
2022/01/01 01:49:27;;;;;;;23.88;15.57;;;;;;;;;;5074532;28;20239;-69
2022/01/01 01:51:54;;;;;;;21.80;14.68;;;;;;;;;;5074853;28;20234;-69
2022/01/01 01:54:22;;;;;;;21.17;13.98;;;;;;;;;;5074377;28;20685;-69
2022/01/01 01:56:50;;;;;;;20.90;14.25;;;;;;;;;;5057045;28;20331;-69
2022/01/01 01:59:17;;;;;;;22.30;14.45;;;;;;;;;;5074570;28;20642;-69
2022/01/01 02:01:44;;;;;;;20.10;14.23;;;;;;;;;;5074452;28;20258;-68
2022/01/01 02:04:12;;;;;;;22.27;16.20;;;;;;;;;;5074806;28;20195;-69
2022/01/01 02:06:40;;;;;;;24.02;17.17;;;;;;;;;;5074559;28;20215;-69
2022/01/01 02:09:10;;;;;;;28.13;18.23;;;;;;;;;;5074249;28;20572;-69
2022/01/01 02:11:38;;;;;;;26.40;16.80;;;;;;;;;;5074547;28;20242;-68
2022/01/01 02:19:28;;;;;;;19.63;14.88;;;;;;;;;;5074485;28;20257;-69
2022/01/01 02:22:00;;;;;;;20.77;14.63;;;;;;;;;;5074074;28;20700;-69
2022/01/01 02:24:27;;;;;;;20.75;14.50;;;;;;;;;;5074465;28;20199;-69
2022/01/01 02:26:55;;;;;;;19.50;13.82;;;;;;;;;;5073956;28;20685;-69
2022/01/01 02:29:22;;;;;;;17.02;12.82;;;;;;;;;;5074031;28;20584;-68
2022/01/01 02:31:50;;;;;;;20.23;11.98;;;;;;;;;;5073925;28;20571;-68
2022/01/01 02:34:18;;;;;;;14.43;11.05;;;;;;;;;;5074169;28;20238;-68
2022/01/01 02:36:46;;;;;;;18.10;12.35;;;;;;;;;;5074363;28;20210;-69
2022/01/01 02:39:17;;;;;;;20.20;12.70;;;;;;;;;;5074321;28;20214;-69
2022/01/01 02:41:46;;;;;;;17.23;12.13;;;;;;;;;;5074131;28;20693;-69
2022/01/01 02:44:13;;;;;;;18.15;11.00;;;;;;;;;;5074282;28;20219;-69
2022/01/01 02:46:41;;;;;;;15.98;11.93;;;;;;;;;;5073963;28;20207;-69
2022/01/01 02:49:09;;;;;;;16.52;12.95;;;;;;;;;;5073855;28;20543;-69
2022/01/01 02:51:36;;;;;;;16.55;12.15;;;;;;;;;;5074327;28;20207;-69
2022/01/01 02:54:03;;;;;;;15.95;11.20;;;;;;;;;;5073995;28;20239;-69
2022/01/01 02:56:31;;;;;;;15.55;9.43;;;;;;;;;;5057093;28;20214;-69
2022/01/01 02:58:58;;;;;;;14.73;10.45;;;;;;;;;;5077895;28;20746;-69
2022/01/01 03:01:25;;;;;;;16.35;11.38;;;;;;;;;;5077922;28;20207;-68
2022/01/01 03:03:52;;;;;;;14.98;10.45;;;;;;;;;;5078037;28;20254;-68
2022/01/01 03:06:22;;;;;;;14.90;10.35;;;;;;;;;;5078198;28;20208;-68
2022/01/01 03:08:52;;;;;;;13.63;8.73;;;;;;;;;;5077909;28;20211;-68
2022/01/01 03:11:19;;;;;;;11.23;7.35;;;;;;;;;;5077765;28;20349;-69
2022/01/01 03:13:47;;;;;;;12.68;7.78;;;;;;;;;;5078228;28;20231;-69
2022/01/01 03:16:15;;;;;;;9.77;6.25;;;;;;;;;;5077508;28;20214;-68
2022/01/01 03:18:42;;;;;;;9.05;6.07;;;;;;;;;;5077597;28;20214;-69
2022/01/01 03:21:09;;;;;;;8.82;6.30;;;;;;;;;;5077391;28;20649;-68
2022/01/01 03:23:36;;;;;;;9.70;6.20;;;;;;;;;;5077306;28;20607;-68
2022/01/01 03:26:04;;;;;;;8.52;5.93;;;;;;;;;;5077558;28;20212;-68
2022/01/01 03:28:31;;;;;;;8.90;5.30;;;;;;;;;;5077556;28;20226;-68
2022/01/01 03:30:59;;;;;;;9.35;6.47;;;;;;;;;;5077271;28;20504;-68
2022/01/01 03:33:26;;;;;;;10.57;5.93;;;;;;;;;;5077359;28;20280;-68
2022/01/01 03:35:54;;;;;;;7.18;4.85;;;;;;;;;;5077348;28;20212;-69
2022/01/01 03:38:21;;;;;;;6.53;4.70;;;;;;;;;;5077551;28;20208;-69
2022/01/01 03:40:48;;;;;;;5.38;4.20;;;;;;;;;;5077060;28;20215;-67
2022/01/01 03:43:16;;;;;;;7.20;4.57;;;;;;;;;;5076894;28;20558;-68
2022/01/01 03:45:43;;;;;;;7.18;4.80;;;;;;;;;;5076998;28;20264;-68
2022/01/01 03:48:10;;;;;;;6.15;4.30;;;;;;;;;;5077051;28;20210;-69
2022/01/01 03:50:38;;;;;;;7.00;4.60;;;;;;;;;;5077133;28;20218;-68
2022/01/01 03:53:05;;;;;;;6.22;4.43;;;;;;;;;;5076644;28;20264;-68
2022/01/01 03:55:32;;;;;;;6.03;4.43;;;;;;;;;;5076974;28;20212;-69
2022/01/01 03:57:59;;;;;;;7.13;4.43;;;;;;;;;;5076637;28;20697;-68
2022/01/01 04:00:27;;;;;;;7.00;4.47;;;;;;;;;;5076848;28;20212;-69
2022/01/01 04:02:54;;;;;;;8.07;4.72;;;;;;;;;;5076615;28;20322;-69
2022/01/01 04:05:21;;;;;;;7.10;4.50;;;;;;;;;;5076928;28;20219;-68
2022/01/01 04:07:49;;;;;;;6.95;4.90;;;;;;;;;;5075971;28;20211;-69
2022/01/01 04:10:16;;;;;;;7.17;4.30;;;;;;;;;;5076656;28;20329;-68
2022/01/01 04:12:43;;;;;;;5.53;3.97;;;;;;;;;;5076365;28;20215;-68
2022/01/01 04:15:11;;;;;;;5.00;3.17;;;;;;;;;;5076658;28;20296;-68
2022/01/01 04:17:38;;;;;;;5.37;3.33;;;;;;;;;;5076667;28;20233;-69
2022/01/01 04:20:06;;;;;;;5.00;3.08;;;;;;;;;;5076420;28;20265;-69
2022/01/01 04:22:34;;;;;;;4.00;3.15;;;;;;;;;;5076262;28;20747;-69
2022/01/01 04:25:01;;;;;;;4.70;3.47;;;;;;;;;;5076447;28;20302;-69
2022/01/01 04:27:28;;;;;;;3.87;2.70;;;;;;;;;;5076301;28;20215;-69
2022/01/01 04:29:55;;;;;;;4.90;2.75;;;;;;;;;;5076543;28;20211;-69
2022/01/01 04:32:23;;;;;;;4.20;2.70;;;;;;;;;;5076567;28;20270;-68
2022/01/01 04:34:50;;;;;;;5.33;3.10;;;;;;;;;;5075853;28;20712;-68
2022/01/01 04:37:19;;;;;;;5.47;3.30;;;;;;;;;;5076270;28;20215;-68
2022/01/01 04:39:49;;;;;;;4.15;3.00;;;;;;;;;;5076294;28;20238;-69
2022/01/01 04:42:17;;;;;;;4.93;3.40;;;;;;;;;;5076197;28;20191;-69
2022/01/01 04:44:44;;;;;;;4.67;3.83;;;;;;;;;;5075931;28;20215;-69
2022/01/01 04:47:11;;;;;;;6.83;3.50;;;;;;;;;;5075708;28;20246;-69
2022/01/01 04:49:38;;;;;;;5.87;3.70;;;;;;;;;;5075728;28;20720;-68
2022/01/01 04:52:06;;;;;;;6.83;3.90;;;;;;;;;;5075996;28;20606;-69
2022/01/01 04:54:38;;;;;;;6.40;4.00;;;;;;;;;;5075884;28;20281;-68
2022/01/01 04:57:05;;;;;;;5.30;3.90;;;;;;;;;;5075932;28;20224;-68
2022/01/01 04:59:33;;;;;;;4.67;3.77;;;;;;;;;;5075586;28;20207;-68
2022/01/01 05:02:01;;;;;;;6.65;4.45;;;;;;;;;;5075247;28;20243;-68
2022/01/01 05:04:29;;;;;;;6.10;4.63;;;;;;;;;;5075567;28;20211;-69
2022/01/01 05:06:57;;;;;;;10.27;5.83;;;;;;;;;;5058154;28;20214;-68
2022/01/01 05:09:24;;;;;;;12.43;6.53;;;;;;;;;;5075822;28;20211;-68
2022/01/01 05:11:51;;;;;;;18.17;8.23;;;;;;;;;;5075562;28;20207;-68
2022/01/01 05:14:19;;;;;;;50.07;18.63;;;;;;;;;;5075254;28;20239;-68
2022/01/01 05:16:46;;;;;;;50.07;19.03;;;;;;;;;;5075111;28;20735;-68
2022/01/01 05:19:15;;;;;;;20.17;9.02;;;;;;;;;;5075353;28;20212;-68
2022/01/01 05:21:42;;;;;;;32.10;13.38;;;;;;;;;;5075325;28;20239;-68
2022/01/01 05:24:12;;;;;;;24.77;11.60;;;;;;;;;;5075073;28;20207;-68
2022/01/01 05:26:39;;;;;;;12.23;7.30;;;;;;;;;;5075023;28;20276;-69
2022/01/01 05:29:06;;;;;;;13.45;8.68;;;;;;;;;;5074938;28;20211;-69
2022/01/01 05:31:34;;;;;;;14.93;8.73;;;;;;;;;;5074908;28;20553;-68
2022/01/01 05:34:01;;;;;;;10.30;5.78;;;;;;;;;;5074870;28;20246;-68
2022/01/01 05:36:28;;;;;;;8.30;5.63;;;;;;;;;;5075265;28;20215;-68
2022/01/01 05:38:56;;;;;;;7.90;5.53;;;;;;;;;;5074938;28;20211;-68
2022/01/01 05:41:23;;;;;;;6.87;4.60;;;;;;;;;;5057290;28;20291;-68
2022/01/01 05:43:51;;;;;;;7.93;5.57;;;;;;;;;;5069994;28;20225;-69
2022/01/01 05:46:18;;;;;;;7.57;5.70;;;;;;;;;;5074006;28;20251;-68
2022/01/01 05:48:45;;;;;;;9.27;6.30;;;;;;;;;;5070840;28;20250;-67
2022/01/01 05:51:13;;;;;;;15.80;8.52;;;;;;;;;;5067297;28;20214;-68
2022/01/01 05:53:40;;;;;;;13.90;7.80;;;;;;;;;;5068545;28;20678;-69
2022/01/01 05:56:07;;;;;;;9.93;6.40;;;;;;;;;;5065538;28;20215;-69
2022/01/01 05:58:35;;;;;;;12.10;7.17;;;;;;;;;;5064485;28;20210;-68
2022/01/01 06:01:02;;;;;;;14.73;7.20;;;;;;;;;;5068556;28;20218;-69
2022/01/01 06:03:31;;;;;;;14.13;8.27;;;;;;;;;;5068313;28;20325;-69
2022/01/01 06:05:59;;;;;;;15.43;9.17;;;;;;;;;;5070172;28;20207;-69
2022/01/01 06:08:38;;;;;;;17.87;9.13;;;;;;;;;;5070200;28;20214;-68
2022/01/01 06:11:06;;;;;;;14.67;8.50;;;;;;;;;;5064954;28;20217;-68
2022/01/01 06:13:33;;;;;;;17.50;9.10;;;;;;;;;;5068299;28;20246;-68
2022/01/01 06:16:00;;;;;;;19.17;9.53;;;;;;;;;;5061907;28;20228;-69
2022/01/01 06:18:28;;;;;;;20.60;9.77;;;;;;;;;;5053633;28;20212;-67
2022/01/01 06:20:56;;;;;;;21.33;10.50;;;;;;;;;;5061474;28;20215;-69
2022/01/01 06:23:24;;;;;;;26.73;12.67;;;;;;;;;;5071028;28;21833;-69
2022/01/01 06:25:51;;;;;;;27.00;15.23;;;;;;;;;;5068265;28;20212;-69
2022/01/01 06:28:18;;;;;;;33.78;15.63;;;;;;;;;;5068203;28;20611;-68
2022/01/01 06:30:46;;;;;;;26.47;13.73;;;;;;;;;;5064748;28;20215;-69
2022/01/01 06:33:16;;;;;;;37.37;16.00;;;;;;;;;;5067639;28;20211;-68
2022/01/01 06:35:45;;;;;;;31.20;15.10;;;;;;;;;;5069317;28;20231;-68
2022/01/01 06:38:12;;;;;;;32.50;15.97;;;;;;;;;;5066876;28;20215;-69
2022/01/01 06:40:41;;;;;;;28.17;14.53;;;;;;;;;;5067736;28;20207;-68
2022/01/01 06:43:11;;;;;;;29.57;12.83;;;;;;;;;;5067985;28;20658;-68
2022/01/01 06:45:38;;;;;;;22.33;12.27;;;;;;;;;;5067208;28;20218;-68
2022/01/01 06:48:06;;;;;;;18.47;11.13;;;;;;;;;;5069435;28;20735;-69
2022/01/01 06:50:35;;;;;;;13.80;8.70;;;;;;;;;;5066404;28;20239;-68
2022/01/01 06:53:07;;;;;;;15.97;9.47;;;;;;;;;;5068507;28;20208;-69
2022/01/01 06:55:34;;;;;;;11.70;7.67;;;;;;;;;;5069366;28;20239;-69
2022/01/01 06:58:02;;;;;;;11.13;7.67;;;;;;;;;;5064631;28;20207;-67
2022/01/01 07:00:29;;;;;;;13.97;8.20;;;;;;;;;;5069532;28;20544;-67
2022/01/01 07:02:56;;;;;;;12.87;7.73;;;;;;;;;;5064650;28;20286;-67
2022/01/01 07:05:24;;;;;;;18.13;10.00;;;;;;;;;;5064762;28;20304;-66
2022/01/01 07:07:51;;;;;;;22.40;12.63;;;;;;;;;;5069802;28;20626;-67
2022/01/01 07:10:18;;;;;;;24.73;14.23;;;;;;;;;;5073221;28;20219;-67
2022/01/01 07:12:45;;;;;;;29.80;14.53;;;;;;;;;;5073530;28;20299;-67
2022/01/01 07:15:15;;;;;;;28.60;14.03;;;;;;;;;;5073364;28;20242;-68
2022/01/01 07:17:43;;;;;;;25.93;14.40;;;;;;;;;;5065338;28;20361;-67
2022/01/01 07:20:11;;;;;;;24.70;14.40;;;;;;;;;;5060033;28;20764;-67
2022/01/01 07:22:44;;;;;;;26.43;14.60;;;;;;;;;;5042265;28;20236;-67
2022/01/01 07:25:13;;;;;;;32.90;15.60;;;;;;;;;;5061422;28;20240;-67
2022/01/01 07:27:41;;;;;;;32.77;17.47;;;;;;;;;;5064240;28;20236;-67
2022/01/01 07:30:09;;;;;;;39.87;20.00;;;;;;;;;;5064857;28;20243;-68
2022/01/01 07:32:44;;;;;;;42.73;19.27;;;;;;;;;;5062522;28;20239;-69
2022/01/01 07:35:12;;;;;;;37.17;17.40;;;;;;;;;;5054406;28;20258;-68
2022/01/01 07:37:39;;;;;;;37.63;16.07;;;;;;;;;;5072132;28;20725;-68
2022/01/01 07:40:10;;;;;;;28.83;14.20;;;;;;;;;;5072773;28;20243;-68
2022/01/01 07:42:38;;;;;;;32.47;15.13;;;;;;;;;;5072217;28;20228;-66
2022/01/01 07:45:06;;;;;;;25.70;14.13;;;;;;;;;;5075378;28;20234;-67
2022/01/01 07:47:34;;;;;;;23.97;12.67;;;;;;;;;;5075278;28;20235;-66
2022/01/01 07:50:02;;;;;;;20.20;12.10;;;;;;;;;;5075883;28;20230;-68
2022/01/01 07:52:29;;;;;;;20.48;11.10;;;;;;;;;;5075583;28;20721;-66
2022/01/01 07:54:57;;;;;;;15.20;9.17;;;;;;;;;;5075772;28;20710;-67
2022/01/01 07:57:26;;;;;;;14.55;9.30;;;;;;;;;;5075666;28;20238;-68
2022/01/01 07:59:54;;;;;;;16.35;9.20;;;;;;;;;;5075773;28;20231;-66
2022/01/01 08:02:21;;;;;;;12.82;8.93;;;;;;;;;;5073701;28;20254;-66
2022/01/01 08:04:49;;;;;;;15.23;9.32;;;;;;;;;;5074491;28;20231;-66
2022/01/01 08:07:16;;;;;;;13.37;8.80;;;;;;;;;;5075312;28;20341;-68
2022/01/01 08:10:05;;;;;;;12.40;8.43;;;;;;;;;;5075476;28;20243;-67
2022/01/01 08:12:32;;;;;;;17.05;10.40;;;;;;;;;;5075100;28;20239;-66
2022/01/01 08:15:00;;;;;;;14.30;9.80;;;;;;;;;;5075705;28;20277;-66
2022/01/01 08:17:28;;;;;;;13.15;9.93;;;;;;;;;;5074550;28;20246;-68
2022/01/01 08:19:55;;;;;;;15.20;10.15;;;;;;;;;;5072328;28;20235;-65
2022/01/01 08:22:22;;;;;;;26.27;16.60;;;;;;;;;;5067049;28;20231;-67
2022/01/01 08:24:49;;;;;;;20.50;16.10;;;;;;;;;;5064973;28;20322;-66
2022/01/01 08:27:18;;;;;;;17.63;10.23;;;;;;;;;;5069985;28;20227;-66
2022/01/01 08:29:45;;;;;;;21.13;11.95;;;;;;;;;;5063858;28;20585;-67
2022/01/01 08:32:12;;;;;;;15.35;10.02;;;;;;;;;;5066991;28;20681;-67
2022/01/01 08:34:40;;;;;;;17.88;10.52;;;;;;;;;;5065052;28;20306;-67
2022/01/01 08:37:07;;;;;;;16.70;10.73;;;;;;;;;;5068073;28;20801;-67
2022/01/01 08:39:34;;;;;;;16.43;10.60;;;;;;;;;;5074800;28;20228;-67
2022/01/01 08:42:02;;;;;;;17.23;10.70;;;;;;;;;;5073384;28;20238;-67
2022/01/01 08:44:30;;;;;;;19.35;11.23;;;;;;;;;;5071770;28;20228;-66
2022/01/01 08:46:57;;;;;;;21.70;13.00;;;;;;;;;;5074554;28;20721;-66
2022/01/01 08:49:24;;;;;;;19.73;12.07;;;;;;;;;;5074861;28;20227;-67
2022/01/01 08:51:55;;;;;;;20.80;12.50;;;;;;;;;;5075009;28;20731;-69
2022/01/01 08:54:23;;;;;;;24.55;14.27;;;;;;;;;;5065788;28;20227;-72
2022/01/01 08:56:52;;;;;;;25.80;15.10;;;;;;;;;;5074773;28;20246;-69
2022/01/01 08:59:20;;;;;;;24.40;15.32;;;;;;;;;;5060748;28;20228;-67
2022/01/01 09:01:47;;;;;;;24.10;15.98;;;;;;;;;;5073143;28;20690;-68
2022/01/01 09:04:14;;;;;;;25.38;16.13;;;;;;;;;;5071505;28;20232;-67
2022/01/01 09:06:42;;;;;;;22.17;15.63;;;;;;;;;;5074575;28;20273;-67
2022/01/01 09:09:10;;;;;;;19.85;13.48;;;;;;;;;;5069640;28;20254;-68
2022/01/01 09:11:37;;;;;;;19.92;11.95;;;;;;;;;;5067632;28;20266;-67
2022/01/01 09:14:04;;;;;;;19.20;11.43;;;;;;;;;;5067651;28;20227;-68
2022/01/01 09:16:32;;;;;;;14.30;9.80;;;;;;;;;;5070462;28;20718;-68
2022/01/01 09:19:00;;;;;;;10.75;8.55;;;;;;;;;;5073475;28;20314;-67
2022/01/01 09:21:28;;;;;;;12.98;7.75;;;;;;;;;;5073631;28;20255;-67
2022/01/01 09:23:56;;;;;;;13.20;8.98;;;;;;;;;;5073712;28;20231;-67
2022/01/01 09:26:23;;;;;;;11.90;7.95;;;;;;;;;;5066396;28;20285;-67
2022/01/01 09:28:53;;;;;;;9.27;7.22;;;;;;;;;;5063131;28;20227;-66
2022/01/01 09:31:21;;;;;;;9.23;6.20;;;;;;;;;;5063777;28;20284;-67
2022/01/01 09:33:48;;;;;;;9.30;6.38;;;;;;;;;;5061039;28;20228;-67
2022/01/01 09:36:17;;;;;;;11.73;8.20;;;;;;;;;;5073577;28;20330;-67
2022/01/01 09:38:45;;;;;;;10.70;7.50;;;;;;;;;;5073158;28;20831;-65
2022/01/01 09:41:13;;;;;;;11.93;8.20;;;;;;;;;;5064879;28;20236;-67
2022/01/01 09:43:40;;;;;;;9.77;5.78;;;;;;;;;;5073107;28;20242;-66
2022/01/01 09:46:13;;;;;;;13.10;8.60;;;;;;;;;;5071601;28;20227;-67
2022/01/01 09:48:55;;;;;;;14.32;9.27;;;;;;;;;;5073283;28;20259;-66
2022/01/01 09:51:25;;;;;;;10.55;7.97;;;;;;;;;;5072965;28;20227;-66
2022/01/01 09:53:52;;;;;;;12.73;7.43;;;;;;;;;;5073192;28;20232;-66
2022/01/01 09:56:19;;;;;;;14.02;9.50;;;;;;;;;;5072886;28;20294;-67
2022/01/01 09:58:46;;;;;;;13.95;8.85;;;;;;;;;;5073152;28;20237;-67
2022/01/01 10:01:15;;;;;;;13.95;9.38;;;;;;;;;;5069637;28;20254;-66
2022/01/01 10:03:45;;;;;;;15.18;9.48;;;;;;;;;;5064797;28;20293;-67
2022/01/01 10:06:17;;;;;;;12.32;9.50;;;;;;;;;;5070282;28;20368;-66
2022/01/01 10:08:47;;;;;;;18.70;11.98;;;;;;;;;;5072975;28;20223;-66
2022/01/01 10:11:18;;;;;;;12.70;10.05;;;;;;;;;;5072606;28;20346;-67
2022/01/01 10:13:46;;;;;;;14.80;9.85;;;;;;;;;;5073063;28;20685;-67
2022/01/01 10:16:14;;;;;;;12.00;8.70;;;;;;;;;;5071159;28;20235;-66
2022/01/01 10:18:45;;;;;;;9.75;7.40;;;;;;;;;;5072783;28;20318;-67
2022/01/01 10:21:14;;;;;;;11.82;8.32;;;;;;;;;;5072519;28;20231;-65
2022/01/01 10:23:45;;;;;;;15.30;9.43;;;;;;;;;;5064358;28;20237;-66
2022/01/01 10:29:24;;;;;;;11.05;7.20;;;;;;;;;;5061855;28;20717;-67
2022/01/01 10:32:06;;;;;;;8.73;6.82;;;;;;;;;;5060445;28;20235;-67
2022/01/01 10:34:43;;;;;;;6.88;5.72;;;;;;;;;;5060638;28;20238;-72
2022/01/01 10:37:32;;;;;;;11.50;7.60;;;;;;;;;;5062108;28;20278;-66
2022/01/01 10:40:00;;;;;;;9.93;7.07;;;;;;;;;;5063008;28;20319;-66
2022/01/01 10:42:27;;;;;;;10.93;7.10;;;;;;;;;;5062432;28;20238;-67
2022/01/01 10:44:55;;;;;;;8.50;6.70;;;;;;;;;;5060506;28;20238;-66
2022/01/01 10:47:31;;;;;;;9.20;6.60;;;;;;;;;;5062598;28;20337;-67
2022/01/01 10:52:48;;;;;;;7.53;5.50;;;;;;;;;;5064698;28;20580;-65
2022/01/01 10:55:16;;;;;;;6.88;4.85;;;;;;;;;;5063818;28;20231;-65
2022/01/01 10:57:58;;;;;;;7.90;4.80;;;;;;;;;;5046965;28;20270;-65
2022/01/01 11:00:27;;;;;;;6.72;4.90;;;;;;;;;;5060727;28;20277;-66
2022/01/01 11:02:56;;;;;;;7.05;4.70;;;;;;;;;;5029848;28;20239;-64
2022/01/01 11:05:32;;;;;;;7.97;5.25;;;;;;;;;;5063890;28;20594;-65
2022/01/01 11:08:00;;;;;;;6.32;4.93;;;;;;;;;;5063749;28;20242;-64
2022/01/01 11:10:28;;;;;;;7.13;4.05;;;;;;;;;;5062901;28;20314;-66
2022/01/01 11:12:59;;;;;;;9.82;4.80;;;;;;;;;;5072681;28;20254;-67
2022/01/01 11:15:27;;;;;;;7.38;4.95;;;;;;;;;;5071345;28;20248;-66
2022/01/01 11:17:58;;;;;;;6.90;4.73;;;;;;;;;;5073773;28;20235;-65
2022/01/01 11:20:30;;;;;;;5.90;4.15;;;;;;;;;;5076771;28;20257;-65
2022/01/01 11:22:58;;;;;;;6.13;4.35;;;;;;;;;;5071714;28;20262;-66
2022/01/01 11:25:25;;;;;;;6.15;4.32;;;;;;;;;;5065078;28;20232;-62
2022/01/01 11:27:53;;;;;;;7.57;4.47;;;;;;;;;;5045827;28;20235;-66
2022/01/01 11:30:26;;;;;;;7.93;5.50;;;;;;;;;;5068484;28;20722;-68
2022/01/01 11:33:01;;;;;;;10.05;4.68;;;;;;;;;;5030046;28;20231;-63
2022/01/01 11:35:32;;;;;;;10.93;6.22;;;;;;;;;;5063995;28;20238;-66
2022/01/01 11:38:03;;;;;;;9.43;5.68;;;;;;;;;;5058093;28;20232;-67
2022/01/01 11:40:55;;;;;;;10.05;6.40;;;;;;;;;;5056230;28;20231;-67
2022/01/01 11:43:40;;;;;;;11.07;7.45;;;;;;;;;;5044983;28;20254;-65
2022/01/01 11:46:29;;;;;;;12.38;7.75;;;;;;;;;;5056039;28;20238;-64
2022/01/01 11:49:04;;;;;;;14.80;8.57;;;;;;;;;;5038537;28;20243;-66
2022/01/01 11:51:42;;;;;;;12.32;8.77;;;;;;;;;;5059483;28;20293;-65
2022/01/01 11:54:16;;;;;;;14.87;10.67;;;;;;;;;;5060818;28;20717;-63
2022/01/01 11:56:50;;;;;;;13.20;9.07;;;;;;;;;;5056226;28;20247;-65
2022/01/01 11:59:31;;;;;;;17.17;10.27;;;;;;;;;;5055827;28;20232;-66
2022/01/01 12:02:12;;;;;;;16.38;10.75;;;;;;;;;;5060942;28;20243;-64
2022/01/01 12:04:44;;;;;;;15.50;9.85;;;;;;;;;;5060754;28;20239;-64
2022/01/01 12:07:20;;;;;;;14.00;9.55;;;;;;;;;;5056183;28;20286;-64
2022/01/01 12:10:02;;;;;;;14.75;10.18;;;;;;;;;;5056291;28;20239;-64
2022/01/01 12:12:36;;;;;;;23.73;14.82;;;;;;;;;;5055791;28;20330;-63
2022/01/01 12:15:05;;;;;;;23.05;14.50;;;;;;;;;;5055655;28;20250;-65
2022/01/01 12:17:43;;;;;;;23.30;14.90;;;;;;;;;;5067605;28;20601;-71
2022/01/01 12:20:15;;;;;;;24.10;15.57;;;;;;;;;;5075946;28;20284;-69
2022/01/01 12:22:46;;;;;;;25.38;16.10;;;;;;;;;;5075756;28;20235;-66
2022/01/01 12:25:17;;;;;;;23.52;15.82;;;;;;;;;;5058453;28;20289;-66
2022/01/01 12:27:47;;;;;;;24.65;14.82;;;;;;;;;;5075289;28;20623;-67
2022/01/01 12:30:15;;;;;;;25.42;14.88;;;;;;;;;;5056655;28;20297;-68
2022/01/01 12:32:46;;;;;;;27.98;17.90;;;;;;;;;;5063777;28;20274;-68
2022/01/01 12:35:17;;;;;;;30.48;17.67;;;;;;;;;;5055558;28;20317;-67
2022/01/01 12:37:44;;;;;;;32.92;18.75;;;;;;;;;;5058214;28;20243;-68
2022/01/01 12:40:12;;;;;;;27.13;17.83;;;;;;;;;;5048219;28;20238;-63
2022/01/01 12:42:48;;;;;;;32.78;18.75;;;;;;;;;;5077748;22;20245;-80
2022/01/01 12:45:15;;;;;;;27.33;18.13;;;;;;;;;;5001449;28;20237;-69
2022/01/01 12:47:43;;;;;;;36.22;20.75;;;;;;;;;;5012986;28;20292;-70
2022/01/01 12:50:10;;;;;;;39.95;23.80;;;;;;;;;;5013163;28;20237;-66
2022/01/01 12:52:37;;;;;;;36.92;22.63;;;;;;;;;;5015414;28;20260;-64
2022/01/01 12:55:05;;;;;;;29.65;19.25;;;;;;;;;;5018781;28;20247;-64
2022/01/01 12:57:32;;;;;;;28.48;16.27;;;;;;;;;;5014678;28;20652;-67
2022/01/01 13:00:22;;;;;;;30.55;20.55;;;;;;;;;;5013616;28;20573;-67
2022/01/01 13:02:56;;;;;;;22.05;15.57;;;;;;;;;;5014187;28;20240;-69
2022/01/01 13:05:24;;;;;;;23.83;14.77;;;;;;;;;;5013855;28;20256;-72
2022/01/01 13:07:51;;;;;;;25.05;15.57;;;;;;;;;;5014090;28;20230;-70
2022/01/01 13:10:18;;;;;;;18.05;12.85;;;;;;;;;;5011550;28;20241;-66
2022/01/01 13:12:48;;;;;;;16.17;10.95;;;;;;;;;;4994800;28;20252;-67
2022/01/01 13:15:18;;;;;;;14.93;10.90;;;;;;;;;;5011110;28;20239;-67
2022/01/01 13:17:49;;;;;;;12.13;9.15;;;;;;;;;;5011294;28;20241;-70
2022/01/01 13:20:17;;;;;;;13.05;9.35;;;;;;;;;;5011309;28;20237;-72
2022/01/01 13:22:44;;;;;;;12.85;9.25;;;;;;;;;;5013034;28;20238;-65
2022/01/01 13:25:11;;;;;;;9.90;8.27;;;;;;;;;;5013356;28;20243;-66
2022/01/01 13:27:39;;;;;;;10.80;7.55;;;;;;;;;;5012456;28;20742;-65
2022/01/01 13:30:07;;;;;;;8.57;6.97;;;;;;;;;;5012516;28;20638;-66
2022/01/01 13:32:35;;;;;;;8.52;6.45;;;;;;;;;;5012450;28;20316;-69
2022/01/01 13:35:03;;;;;;;7.10;4.45;;;;;;;;;;5012857;28;20703;-68
2022/01/01 13:37:30;;;;;;;7.43;4.63;;;;;;;;;;5014245;28;20763;-66
2022/01/01 13:39:58;;;;;;;5.80;4.10;;;;;;;;;;5013944;28;20233;-64
2022/01/01 13:42:26;;;;;;;4.38;3.80;;;;;;;;;;5013166;28;20715;-65
2022/01/01 13:44:53;;;;;;;4.57;2.97;;;;;;;;;;5013349;28;20700;-65
2022/01/01 13:47:29;;;;;;;3.70;2.20;;;;;;;;;;5009334;28;20241;-64
2022/01/01 13:49:58;;;;;;;6.28;2.80;;;;;;;;;;5013920;28;20727;-65
2022/01/01 13:52:29;;;;;;;4.38;1.98;;;;;;;;;;5014011;28;20719;-66
2022/01/01 13:55:00;;;;;;;4.28;2.40;;;;;;;;;;5014038;28;20229;-64
2022/01/01 13:57:31;;;;;;;4.05;2.60;;;;;;;;;;5012567;28;20252;-63
2022/01/01 13:59:59;;;;;;;7.80;2.88;;;;;;;;;;5011054;28;20237;-62
2022/01/01 14:02:28;;;;;;;6.23;2.80;;;;;;;;;;5011820;28;20324;-64
2022/01/01 14:04:57;;;;;;;3.33;2.33;;;;;;;;;;5011807;28;20602;-63
2022/01/01 14:07:26;;;;;;;6.60;2.92;;;;;;;;;;5013162;28;20237;-65
2022/01/01 14:10:07;;;;;;;4.50;2.40;;;;;;;;;;5010956;28;20237;-63
2022/01/01 14:12:37;;;;;;;4.63;2.20;;;;;;;;;;4997542;28;20283;-66
2022/01/01 14:15:08;;;;;;;5.65;2.70;;;;;;;;;;5011332;28;21430;-67
2022/01/01 14:17:51;;;;;;;6.70;2.70;;;;;;;;;;4997136;28;20250;-64
2022/01/01 14:20:23;;;;;;;7.25;2.90;;;;;;;;;;4997885;28;20611;-66
2022/01/01 14:22:51;;;;;;;6.37;2.87;;;;;;;;;;5081743;22;20239;-68
2022/01/01 14:25:19;;;;;;;4.57;2.75;;;;;;;;;;5041574;28;20241;-66
2022/01/01 14:27:46;;;;;;;7.30;2.67;;;;;;;;;;5040926;28;20228;-66
2022/01/01 14:30:13;;;;;;;8.10;3.10;;;;;;;;;;5040777;28;20232;-67
2022/01/01 14:32:42;;;;;;;5.87;2.80;;;;;;;;;;5040946;28;20251;-65
2022/01/01 14:35:10;;;;;;;5.13;3.10;;;;;;;;;;5039376;28;20316;-64
2022/01/01 14:37:37;;;;;;;9.47;3.33;;;;;;;;;;5041080;28;20262;-65
2022/01/01 14:40:05;;;;;;;5.03;2.87;;;;;;;;;;5042512;28;20783;-66
2022/01/01 14:42:32;;;;;;;8.07;3.00;;;;;;;;;;5038089;28;20263;-64
2022/01/01 14:45:00;;;;;;;7.70;3.60;;;;;;;;;;5042581;28;20232;-63
2022/01/01 14:47:32;;;;;;;11.00;3.53;;;;;;;;;;5042766;28;20236;-65
2022/01/01 14:50:04;;;;;;;7.83;3.03;;;;;;;;;;5008774;28;20236;-65